• Join FlightAware (Why Join?)
  • Login
  • US Flag 
07:50PM EDT


 

Airport Tracker/Info


-or-


 

Live Flight TrackerFlight Track Log ✈ DAL268 ✈ 17-Oct-2013 ✈ KSFO - KJFK

Flight Track Log - Related Links

Times and Time Zones

All times are in EDT time to prevent confusion due to time zone crossing. See the DAL268 flight status page for this flight to view local times or setup timezone preferences in your user account.

Time Position Orientation Groundspeed Altitude Reporting Facility
EDT Latitude Longitude Course Direction KTS MPH feet Rate Location/Type
02:32PM 37.6117 -122.3770 360° North 110 127  Level FlightAware ADS-B
02:32PM 37.6229 -122.3700 26° Northeast 165 190 1,020 Level FlightAware ADS-B
02:32PM 37.6326 -122.3640 26° Northeast 166 191 600 2,460 Climbing FlightAware ADS-B
02:32PM 37.6384 -122.3580 39° Northeast 168 193 1,000 3,000 Climbing FlightAware ADS-B
02:32PM 37.6402 -122.3560 41° Northeast 168 193 1,200 1,860 Climbing FlightAware ADS-B
02:33PM 37.6489 -122.3440 48° Northeast 183 211 1,600 1,500 Climbing FlightAware ADS-B
02:33PM 37.6581 -122.3300 50° Northeast 202 232 2,000 1,500 Climbing FlightAware ADS-B
02:33PM 37.6680 -122.3160 48° Northeast 221 254 2,400 1,860 Climbing FlightAware ADS-B
02:33PM 37.6792 -122.2990 50° Northeast 239 275 3,000 2,040 Climbing FlightAware ADS-B
02:34PM 37.6888 -122.2870 45° Northeast 250 288 3,400 1,980 Climbing FlightAware ADS-B
02:34PM 37.6916 -122.2840 40° Northeast 253 291 3,500 1,980 Climbing FlightAware ADS-B
02:34PM 37.6946 -122.2820 28° Northeast 254 292 3,600 2,520 Climbing FlightAware ADS-B
02:34PM 37.7000 -122.2790 24° Northeast 257 296 3,800 2,220 Climbing FlightAware ADS-B
02:34PM 37.7044 -122.2780 10° North 259 298 3,900 1,500 Climbing FlightAware ADS-B
02:34PM 37.7086 -122.2770 11° North 262 302 4,000 2,220 Climbing FlightAware ADS-B
02:34PM 37.7136 -122.2770 360° North 263 303 4,200 3,000 Climbing FlightAware ADS-B
02:34PM 37.7188 -122.2770 360° North 264 304 4,400 3,000 Climbing FlightAware ADS-B
02:34PM 37.7303 -122.2770 360° North 265 305 4,900 3,000 Climbing FlightAware ADS-B
02:34PM 37.7502 -122.2790 355° North 267 307 5,700 2,880 Climbing FlightAware ADS-B
02:35PM 37.7694 -122.2800 358° North 272 313 6,400 3,000 Climbing FlightAware ADS-B
02:35PM 37.7867 -122.2800 360° North 277 319 7,100 2,700 Climbing FlightAware ADS-B
02:35PM 37.7945 -122.2770 17° North 279 321 7,300 2,700 Climbing FlightAware ADS-B
02:36PM 37.8230 -122.2420 44° Northeast 289 333 8,900 2,820 Climbing FlightAware
02:36PM 37.8300 -122.2160 71° East 291 335 9,600 2,220 Climbing FlightAware ADS-B
02:36PM 37.8403 -122.1650 76° East 312 359 10,600 1,500 Climbing FlightAware ADS-B
02:37PM 37.8528 -122.1020 76° East 349 402 11,200 1,260 Climbing FlightAware ADS-B
02:37PM 37.8660 -122.0390 75° East 371 427 12,000 1,500 Climbing FlightAware ADS-B
02:38PM 37.8787 -121.9810 74° East 390 449 12,700 2,100 Climbing FlightAware ADS-B
02:38PM 37.8921 -121.9140 76° East 394 453 14,000 2,400 Climbing FlightAware ADS-B
02:39PM 37.9064 -121.8420 76° East 398 458 15,200 2,160 Climbing FlightAware ADS-B
02:39PM 37.9206 -121.7710 76° East 408 470 16,300 2,040 Climbing FlightAware ADS-B
02:40PM 37.9348 -121.7010 76° East 412 474 17,300 2,040 Climbing FlightAware ADS-B
02:40PM 37.9493 -121.6300 75° East 417 480 18,400 1,920 Climbing FlightAware ADS-B
02:41PM 37.9640 -121.5580 75° East 424 488 19,300 1,740 Climbing FlightAware ADS-B
02:41PM 37.9796 -121.4810 76° East 430 495 20,200 1,740 Climbing FlightAware ADS-B
02:42PM 37.9944 -121.4070 76° East 435 501 21,100 1,800 Climbing FlightAware ADS-B
02:42PM 38.0095 -121.3320 76° East 439 505 22,000 1,680 Climbing FlightAware ADS-B
02:43PM 38.0290 -121.2340 76° East 444 511 23,100 1,620 Climbing FlightAware ADS-B
02:44PM 38.0550 -121.1020 76° East 450 518 24,500 1,620 Climbing FlightAware
02:45PM 38.0730 -121.0110 76° East 451 519 25,500 1,440 Climbing FlightAware
02:45PM 38.0910 -120.9160 76° East 457 526 26,300 1,200 Climbing FlightAware
02:46PM 38.1080 -120.8230 77° East 464 534 27,000 1,140 Climbing FlightAware
02:46PM 38.1230 -120.7380 77° East 470 541 27,600 1,620 Climbing FlightAware
02:47PM 38.1400 -120.6460 77° East 459 528 28,800 1,860 Climbing FlightAware
02:47PM 38.1560 -120.5520 78° East 457 526 29,800 1,320 Climbing FlightAware
02:48PM 38.1740 -120.4560 77° East 462 532 30,400 960 Climbing FlightAware
02:49PM 38.1910 -120.3600 77° East 467 537 31,000 1,200 Climbing FlightAware
02:49PM 38.2080 -120.2660 77° East 463 533 31,900 1,380 Climbing FlightAware
02:50PM 38.2220 -120.1830 78° East 460 529 32,600 1,320 Climbing FlightAware
02:50PM 38.2172 -120.2113 258° West 460 529 32,800 1,260 Climbing FlightAware ADS-B (KAHC)
02:51PM 38.2550 -119.9970 77° East 455 524 34,100 1,200 Climbing FlightAware
02:52PM 38.2720 -119.8980 78° East 454 522 34,800 780 Climbing FlightAware
02:52PM 38.2860 -119.8190 77° East 456 525 35,000 180 Climbing FlightAware
02:52PM 38.2961 -119.7589 78° East 459 528 35,000  Level FlightAware ADS-B (KAHC)
02:53PM 38.3191 -119.6242 78° East 469 540 35,000  Level FlightAware ADS-B (KAHC)
02:54PM 38.3323 -119.5469 78° East 469 540 35,000  Level FlightAware ADS-B (KAHC)
02:54PM 38.3478 -119.4554 78° East 466 536 35,000  Level FlightAware ADS-B (KAHC)
02:55PM 38.3640 -119.3593 78° East 468 539 35,000  Level FlightAware ADS-B (KAHC)
02:56PM 38.3790 -119.2680 78° East 467 537 35,000  Level FlightAware
02:56PM 38.3852 -119.2328 77° East 465 535 35,000  Level FlightAware ADS-B (KAHC)
02:56PM 38.3989 -119.1508 78° East 464 534 35,000  Level FlightAware ADS-B (KAHC)
02:57PM 38.4192 -119.0279 78° East 465 535 35,000  Level FlightAware ADS-B (KAHC)
02:58PM 38.4367 -118.9217 78° East 466 536 35,000  Level FlightAware ADS-B (KAHC)
02:59PM 38.4610 -118.7730 78° East 466 536 35,000  Level FlightAware
02:59PM 38.4770 -118.6740 78° East 469 540 35,000  Level FlightAware
03:00PM 38.4940 -118.5720 78° East 469 540 35,000  Level FlightAware
03:01PM 38.5120 -118.4570 79° East 469 540 35,000  Level FlightAware
03:01PM 38.5280 -118.3570 78° East 468 539 35,000  Level FlightAware
03:02PM 38.5420 -118.2700 78° East 468 539 35,000  Level FlightAware
03:02PM 38.5570 -118.1760 78° East 469 540 35,000  Level FlightAware
03:03PM 38.5710 -118.0870 79° East 469 540 35,000  Level FlightAware
03:04PM 38.5900 -117.9700 78° East 470 541 35,000  Level FlightAware
03:04PM 38.6030 -117.8860 79° East 470 541 35,000  Level FlightAware
03:05PM 38.6180 -117.8010 77° East 470 541 35,000  Level FlightAware
03:05PM 38.6310 -117.7180 79° East 470 541 35,000  Level FlightAware
03:06PM 38.6450 -117.6370 77° East 470 541 35,000  Level FlightAware
03:07PM 38.6590 -117.5530 78° East 470 541 35,000  Level FlightAware
03:07PM 38.6720 -117.4700 79° East 470 541 35,000  Level FlightAware
03:08PM 38.6870 -117.3840 77° East 470 541 35,000  Level FlightAware
03:08PM 38.7000 -117.3030 78° East 470 541 35,000  Level FlightAware
03:09PM 38.7140 -117.2200 78° East 470 541 35,000  Level FlightAware
03:10PM 38.7280 -117.1340 78° East 470 541 35,000  Level FlightAware
03:10PM 38.7420 -117.0500 78° East 470 541 35,000  Level FlightAware
03:11PM 38.7600 -116.9410 78° East 470 541 35,000  Level FlightAware
03:12PM 38.7740 -116.8560 78° East 470 541 35,000  Level FlightAware
03:12PM 38.7880 -116.7720 78° East 470 541 35,000  Level FlightAware
03:13PM 38.8020 -116.6890 78° East 470 541 35,000  Level FlightAware
03:14PM 38.8264 -116.3614 78° East 468 539 35,000  Level Oakland Center
03:15PM 38.8486 -116.1972 80° East 468 539 35,000  Level Oakland Center
03:15PM 38.8622 -116.0981 80° East 469 540 35,000  Level Salt Lake Center
03:16PM 38.8844 -115.9350 80° East 465 535 35,000  Level Salt Lake Center
03:17PM 38.9075 -115.7700 80° East 469 540 35,000  Level Salt Lake Center
03:18PM 38.9297 -115.6042 80° East 470 541 35,000  Level Salt Lake Center
03:19PM 38.9561 -115.4061 80° East 470 541 35,000  Level Salt Lake Center
03:20PM 38.9778 -115.2583 79° East 474 545 35,000  Level Salt Lake Center
03:21PM 38.9983 -115.0939 81° East 470 541 35,000  Level Salt Lake Center
03:22PM 39.0233 -114.8958 81° East 467 537 35,000  Level Salt Lake Center
03:28PM 39.1450 -113.9100 81° East 470 541 35,000  Level FlightAware
03:29PM 39.1570 -113.8080 81° East 471 542 35,000  Level FlightAware
03:29PM 39.1670 -113.7190 82° East 472 543 35,000  Level FlightAware
03:30PM 39.1767 -113.6366 81° East 472 543 35,000  Level FlightAware ADS-B
03:31PM 39.1867 -113.5492 82° East 472 543 35,000  Level FlightAware ADS-B
03:31PM 39.1964 -113.4651 82° East 473 544 35,000  Level FlightAware ADS-B
03:32PM 39.2110 -113.3340 82° East 472 543 35,000  Level FlightAware
03:32PM 39.2160 -113.2930 81° East 475 547 35,000 1,020 Level FlightAware ADS-B
03:33PM 39.2330 -113.1400 82° East 458 527 36,200 1,080 Climbing FlightAware
03:34PM 39.2450 -113.0340 82° East 457 526 36,800 600 Climbing FlightAware
03:34PM 39.2574 -112.9219 82° East 463 533 37,000 120 Climbing FlightAware ADS-B
03:35PM 39.2701 -112.8050 82° East 469 540 37,000  Level FlightAware ADS-B
03:36PM 39.2794 -112.7190 82° East 472 543 37,000  Level FlightAware ADS-B
03:36PM 39.2887 -112.6330 82° East 473 544 37,000  Level FlightAware ADS-B
03:36PM 39.2905 -112.6162 82° East 474 545 37,000  Level FlightAware ADS-B
03:36PM 39.2960 -112.5660 82° East 474 545 37,000  Level FlightAware ADS-B
03:37PM 39.3026 -112.5250 78° East 471 542 37,000  Level FlightAware ADS-B
03:37PM 39.3117 -112.4860 73° East 468 539 37,000  Level FlightAware ADS-B
03:37PM 39.3254 -112.4430 68° East 464 534 37,000  Level FlightAware ADS-B
03:37PM 39.3265 -112.4399 65° Northeast 464 534 37,000  Level FlightAware ADS-B
03:38PM 39.3528 -112.3680 65° Northeast 464 534 37,000  Level FlightAware ADS-B
03:38PM 39.3543 -112.3639 65° Northeast 464 534 37,000  Level FlightAware ADS-B
03:38PM 39.3818 -112.2891 64° Northeast 464 534 37,000  Level FlightAware ADS-B
03:38PM 39.3836 -112.2840 66° East 464 534 37,000  Level FlightAware ADS-B
03:39PM 39.4128 -112.2050 64° Northeast 464 534 37,000  Level FlightAware ADS-B
03:39PM 39.4308 -112.1563 64° Northeast 463 533 37,000  Level FlightAware ADS-B
03:39PM 39.4408 -112.1290 65° Northeast 463 533 37,000  Level FlightAware ADS-B
03:40PM 39.4706 -112.0480 64° Northeast 462 532 37,000  Level FlightAware ADS-B
03:40PM 39.4964 -111.9770 65° Northeast 463 533 37,000  Level FlightAware ADS-B
03:41PM 39.5061 -111.9510 64° Northeast 463 533 37,000  Level FlightAware ADS-B
03:41PM 39.5337 -111.8740 65° Northeast 467 537 37,000  Level FlightAware ADS-B
03:42PM 39.5612 -111.7980 65° Northeast 468 539 37,000  Level FlightAware ADS-B
03:42PM 39.5789 -111.7495 65° Northeast 468 539 37,000  Level FlightAware ADS-B
03:42PM 39.5921 -111.7130 65° Northeast 466 536 37,000  Level FlightAware ADS-B
03:43PM 39.6192 -111.6376 65° Northeast 462 532 37,000  Level FlightAware ADS-B
03:43PM 39.6252 -111.6210 65° Northeast 461 531 37,000  Level FlightAware ADS-B
03:43PM 39.6525 -111.5450 65° Northeast 462 532 37,000  Level FlightAware ADS-B
03:44PM 39.6650 -111.5104 65° Northeast 462 532 37,000  Level FlightAware ADS-B
03:44PM 39.6870 -111.4490 65° Northeast 462 532 37,000  Level FlightAware ADS-B
03:44PM 39.7144 -111.3720 65° Northeast 464 534 37,000  Level FlightAware ADS-B
03:45PM 39.7436 -111.2900 65° Northeast 467 537 37,000  Level FlightAware ADS-B
03:45PM 39.7455 -111.2846 65° Northeast 467 537 37,000  Level FlightAware ADS-B (KMTJ)
03:45PM 39.7713 -111.2120 65° Northeast 468 539 37,000  Level FlightAware ADS-B
03:46PM 39.7794 -111.1892 65° Northeast 467 537 37,000  Level FlightAware ADS-B (KMTJ)
03:46PM 39.7989 -111.1340 65° Northeast 465 535 37,000  Level FlightAware ADS-B
03:46PM 39.8113 -111.0989 65° Northeast 464 534 37,000  Level FlightAware ADS-B (KMTJ)
03:46PM 39.8258 -111.0580 65° Northeast 463 533 37,000  Level FlightAware ADS-B
03:47PM 39.8397 -111.0186 65° Northeast 463 533 37,000  Level FlightAware ADS-B
03:47PM 39.8527 -110.9820 65° Northeast 463 533 37,000  Level FlightAware ADS-B
03:47PM 39.8631 -110.9521 66° East 463 533 37,000  Level FlightAware ADS-B (KMTJ)
03:47PM 39.8794 -110.9060 65° Northeast 464 534 37,000  Level FlightAware ADS-B
03:48PM 39.8936 -110.8652 66° East 465 535 37,000  Level FlightAware ADS-B (KMTJ)
03:48PM 39.9200 -110.7899 65° Northeast 465 535 37,000  Level FlightAware ADS-B (KMTJ)
03:48PM 39.9273 -110.7690 65° Northeast 465 535 37,000  Level FlightAware ADS-B
03:49PM 39.9577 -110.6817 66° East 469 540 37,000  Level FlightAware ADS-B (KMTJ)
03:49PM 39.9875 -110.5961 66° East 466 536 37,000  Level FlightAware ADS-B (KMTJ)
03:50PM 40.0156 -110.5149 66° East 466 536 37,000  Level FlightAware ADS-B (KMTJ)
03:51PM 40.0497 -110.4162 66° East 462 532 37,000  Level FlightAware ADS-B (KMTJ)
03:51PM 40.0755 -110.3414 66° East 465 535 37,000  Level FlightAware ADS-B (KMTJ)
03:52PM 40.1037 -110.2598 66° East 470 541 37,000  Level FlightAware ADS-B (KMTJ)
03:52PM 40.1314 -110.1783 66° East 470 541 37,000  Level FlightAware ADS-B (KMTJ)
03:53PM 40.1568 -110.0907 69° East 480 552 37,000  Level FlightAware ADS-B (KMTJ)
03:53PM 40.1763 -110.0073 73° East 481 554 37,000  Level FlightAware ADS-B (KMTJ)
03:54PM 40.1965 -109.9165 74° East 479 551 37,000  Level FlightAware ADS-B (KMTJ)
03:54PM 40.2144 -109.8349 74° East 477 549 37,000  Level FlightAware ADS-B (KMTJ)
03:55PM 40.2351 -109.7412 74° East 477 549 37,000  Level FlightAware ADS-B (KMTJ)
03:55PM 40.2533 -109.6583 74° East 478 550 37,000  Level FlightAware ADS-B (KMTJ)
03:56PM 40.2701 -109.5818 74° East 478 550 37,000  Level FlightAware ADS-B (KMTJ)
03:56PM 40.2899 -109.4917 74° East 481 554 37,000  Level FlightAware ADS-B (KMTJ)
03:57PM 40.3067 -109.4146 74° East 482 555 37,000  Level FlightAware ADS-B (KMTJ)
03:57PM 40.3276 -109.3185 74° East 483 556 37,000  Level FlightAware ADS-B (KMTJ)
03:58PM 40.3463 -109.2321 74° East 482 555 37,000  Level FlightAware ADS-B (KMTJ)
03:58PM 40.3642 -109.1488 74° East 480 552 37,000  Level FlightAware ADS-B (KMTJ)
03:59PM 40.3884 -109.0364 74° East 479 551 37,000  Level FlightAware ADS-B (KMTJ)
04:00PM 40.4062 -108.9532 74° East 480 552 37,000  Level FlightAware ADS-B (KMTJ)
04:00PM 40.4124 -108.9240 74° East 479 551 37,000  Level FlightAware ADS-B (KMTJ)
04:00PM 40.4296 -108.8427 74° East 479 551 37,000  Level FlightAware ADS-B (KMTJ)
04:01PM 40.4469 -108.7613 74° East 482 555 37,000  Level FlightAware ADS-B (KMTJ)
04:01PM 40.4656 -108.6723 74° East 484 557 37,000  Level FlightAware ADS-B (KMTJ)
04:02PM 40.4829 -108.5899 75° East 481 554 37,000  Level FlightAware ADS-B (KMTJ)
04:02PM 40.5008 -108.5043 75° East 481 554 37,000  Level FlightAware ADS-B (KMTJ)
04:03PM 40.5157 -108.4333 75° East 486 559 37,000  Level FlightAware ADS-B (KMTJ)
04:03PM 40.5413 -108.3094 75° East 490 564 37,000  Level FlightAware ADS-B (KMTJ)
04:04PM 40.5596 -108.2205 75° East 489 563 37,000  Level FlightAware ADS-B (KMTJ)
04:04PM 40.5771 -108.1353 75° East 488 562 37,000  Level FlightAware ADS-B (KMTJ)
04:05PM 40.5950 -108.0482 75° East 489 563 37,000  Level FlightAware ADS-B (KMTJ)
04:05PM 40.6124 -107.9623 75° East 491 565 37,000  Level FlightAware ADS-B (KMTJ)
04:06PM 40.6296 -107.8775 75° East 491 565 37,000  Level FlightAware ADS-B (KMTJ)
04:07PM 40.6524 -107.7646 75° East 490 564 37,000  Level FlightAware ADS-B (KMTJ)
04:07PM 40.6700 -107.6769 75° East 493 567 37,000  Level FlightAware ADS-B (KMTJ)
04:08PM 40.6870 -107.5923 75° East 493 567 37,000  Level FlightAware ADS-B (KMTJ)
04:08PM 40.7050 -107.5017 75° East 492 566 37,000  Level FlightAware ADS-B (KMTJ)
04:09PM 40.7264 -107.3940 75° East 492 566 37,000  Level FlightAware ADS-B (KMTJ)
04:09PM 40.7550 -107.2480 75° East 491 565 37,000  Level FlightAware
04:10PM 40.7750 -107.1440 76° East 493 567 37,000  Level FlightAware
04:11PM 40.7980 -107.0300 75° East 492 566 37,000  Level FlightAware
04:12PM 40.8250 -106.8900 76° East 494 568 37,000  Level FlightAware
04:12PM 40.8430 -106.7930 76° East 499 574 37,000  Level FlightAware
04:12PM 40.8561 -106.7269 75° East 499 574 37,000  Level FlightAware ADS-B (KEIK)
04:13PM 40.8755 -106.6243 76° East 494 568 37,000  Level FlightAware ADS-B (KEIK)
04:14PM 40.9030 -106.4800 76° East 494 568 37,000  Level FlightAware
04:14PM 40.9230 -106.3720 76° East 493 567 37,000  Level FlightAware
04:15PM 40.9430 -106.2680 76° East 496 571 37,000  Level FlightAware
04:15PM 40.9510 -106.2239 77° East 497 572 37,000  Level FlightAware ADS-B (KEIK)
04:16PM 40.9800 -106.0680 76° East 497 572 37,000  Level FlightAware
04:17PM 41.0000 -105.9590 76° East 496 571 37,000  Level FlightAware
04:17PM 41.0190 -105.8550 76° East 496 571 37,000  Level FlightAware
04:18PM 41.0360 -105.7600 77° East 495 570 37,000  Level FlightAware
04:19PM 41.0570 -105.6480 76° East 493 567 37,000  Level FlightAware
04:19PM 41.0740 -105.5490 77° East 498 573 37,000  Level FlightAware
04:20PM 41.0910 -105.4590 76° East 501 577 37,000  Level FlightAware
04:20PM 41.0976 -105.4195 77° East 502 578 37,000  Level FlightAware ADS-B (KEIK)
04:21PM 41.1165 -105.3132 77° East 501 577 37,000  Level FlightAware ADS-B (KEIK)
04:21PM 41.1411 -105.1740 77° East 501 577 37,000  Level FlightAware ADS-B (KEIK)
04:22PM 41.1602 -105.0657 77° East 504 580 37,000  Level FlightAware ADS-B (KEIK)
04:23PM 41.1817 -104.9422 77° East 503 579 37,000  Level FlightAware ADS-B (KEIK)
04:23PM 41.2016 -104.8277 77° East 506 582 37,000  Level FlightAware ADS-B (KEIK)
04:24PM 41.2234 -104.7219 75° East 507 583 37,000  Level FlightAware ADS-B (KEIK)
04:24PM 41.2490 -104.6090 73° East 507 583 37,000  Level FlightAware
04:25PM 41.2750 -104.5030 72° East 508 585 37,000  Level FlightAware
04:26PM 41.3000 -104.3960 73° East 506 582 37,000  Level FlightAware
04:26PM 41.3220 -104.3020 73° East 503 579 37,000  Level FlightAware
04:27PM 41.3460 -104.1970 73° East 504 580 37,000  Level FlightAware
04:27PM 41.3720 -104.0840 73° East 508 585 37,000  Level FlightAware
04:28PM 41.3950 -103.9880 72° East 511 588 37,000  Level FlightAware
04:28PM 41.4190 -103.8820 73° East 508 585 37,000  Level FlightAware
04:29PM 41.4430 -103.7780 73° East 507 583 37,000  Level FlightAware
04:30PM 41.4680 -103.6680 73° East 505 581 37,000  Level FlightAware
04:30PM 41.4880 -103.5750 74° East 506 582 37,000  Level FlightAware
04:31PM 41.5140 -103.4620 73° East 509 586 37,000  Level FlightAware
04:31PM 41.5380 -103.3540 73° East 509 586 37,000  Level FlightAware
04:32PM 41.5610 -103.2520 73° East 507 583 37,000  Level FlightAware
04:33PM 41.5820 -103.1560 74° East 507 583 37,000  Level FlightAware
04:33PM 41.6060 -103.0460 74° East 507 583 37,000  Level FlightAware
04:34PM 41.6310 -102.9360 73° East 508 585 37,000  Level FlightAware
04:34PM 41.6520 -102.8440 73° East 508 585 37,000  Level FlightAware
04:35PM 41.6810 -102.7060 74° East 505 581 37,000  Level FlightAware
04:36PM 41.7040 -102.6000 74° East 505 581 37,000  Level FlightAware
04:36PM 41.7260 -102.4970 74° East 509 586 37,000  Level FlightAware
04:37PM 41.7460 -102.4030 74° East 510 587 37,000  Level FlightAware
04:37PM 41.7700 -102.2900 74° East 508 585 37,000  Level FlightAware
04:38PM 41.7910 -102.1890 74° East 508 585 37,000  Level FlightAware
04:39PM 41.8110 -102.0960 74° East 508 585 37,000  Level FlightAware
04:39PM 41.8310 -102.0040 74° East 508 585 37,000  Level FlightAware
04:40PM 41.8510 -101.9110 74° East 508 585 37,000  Level FlightAware
04:40PM 41.8710 -101.8180 74° East 508 585 37,000  Level FlightAware
04:41PM 41.8910 -101.7250 74° East 508 585 37,000  Level FlightAware
04:42PM 41.9100 -101.6320 75° East 508 585 37,000  Level FlightAware
04:42PM 41.9300 -101.5390 74° East 508 585 37,000  Level FlightAware
04:43PM 41.9520 -101.4390 73° East 508 585 37,000  Level FlightAware
04:43PM 41.9720 -101.3430 74° East 508 585 37,000  Level FlightAware
04:44PM 41.9920 -101.2500 74° East 508 585 37,000  Level FlightAware
04:45PM 42.0120 -101.1550 74° East 508 585 37,000  Level FlightAware
04:45PM 42.0330 -101.0590 74° East 508 585 37,000  Level FlightAware
04:46PM 42.0510 -100.9710 75° East 508 585 37,000  Level FlightAware
04:46PM 42.0720 -100.8750 74° East 508 585 37,000  Level FlightAware
04:47PM 42.0910 -100.7820 75° East 508 585 37,000  Level FlightAware
04:52PM 42.3171 -99.5351 76° East 515 593 37,000  Level FlightAware ADS-B
04:53PM 42.3470 -99.3710 76° East 517 595 37,000  Level FlightAware
04:54PM 42.3660 -99.2670 76° East 514 592 37,000  Level FlightAware
04:54PM 42.3730 -99.2304 75° East 514 592 37,000  Level FlightAware ADS-B
04:55PM 42.4080 -99.0370 76° East 514 592 37,000  Level FlightAware
04:56PM 42.4277 -98.9269 76° East 516 594 37,000  Level FlightAware ADS-B
04:56PM 42.4452 -98.8295 76° East 516 594 37,000  Level FlightAware ADS-B
04:57PM 42.4710 -98.6810 77° East 515 593 37,000  Level FlightAware
04:57PM 42.4738 -98.6171 87° East 516 594 37,000  Level FlightAware ADS-B
04:58PM 42.4830 -98.4480 86° East 515 593 37,000  Level FlightAware
04:59PM 42.4890 -98.3300 86° East 516 594 37,000  Level FlightAware
04:59PM 42.4940 -98.2160 87° East 516 594 37,000  Level FlightAware
05:00PM 42.5000 -98.0770 87° East 515 593 37,000  Level FlightAware
05:01PM 42.5050 -97.9670 86° East 517 595 37,000  Level FlightAware
05:01PM 42.5100 -97.8620 86° East 515 593 37,000  Level FlightAware
05:02PM 42.5150 -97.7440 87° East 513 590 37,000  Level FlightAware
05:02PM 42.5200 -97.6340 86° East 511 588 37,000  Level FlightAware
05:03PM 42.5240 -97.5210 87° East 512 589 37,000  Level FlightAware
05:03PM 42.5290 -97.4120 86° East 513 590 37,000  Level FlightAware
05:04PM 42.5330 -97.2980 87° East 513 590 37,000  Level FlightAware
05:05PM 42.5380 -97.1840 87° East 511 588 37,000  Level FlightAware
05:05PM 42.5420 -97.0670 87° East 509 586 37,000  Level FlightAware
05:06PM 42.5460 -96.9640 87° East 507 583 37,000  Level FlightAware
05:06PM 42.5500 -96.8550 87° East 509 586 37,000  Level FlightAware
05:07PM 42.5517 -96.7981 88° East 512 589 37,000  Level FlightAware ADS-B
05:08PM 42.5570 -96.6270 88° East 512 589 37,000  Level FlightAware
05:08PM 42.5610 -96.5140 87° East 512 589 37,000  Level FlightAware
05:09PM 42.5650 -96.3960 87° East 511 588 37,000  Level FlightAware
05:09PM 42.5680 -96.2930 88° East 512 589 37,000  Level FlightAware
05:10PM 42.5720 -96.1750 87° East 512 589 37,000  Level FlightAware
05:10PM 42.5750 -96.0700 88° East 513 590 37,000  Level FlightAware
05:11PM 42.5780 -95.9540 88° East 514 592 37,000  Level FlightAware
05:12PM 42.5810 -95.8520 88° East 517 595 37,000  Level FlightAware
05:12PM 42.5840 -95.7260 88° East 520 598 37,000  Level FlightAware
05:13PM 42.5870 -95.6030 88° East 522 601 37,000  Level FlightAware
05:13PM 42.5890 -95.5100 88° East 522 601 37,000  Level FlightAware
05:14PM 42.5920 -95.3830 88° East 524 603 37,000  Level FlightAware
05:15PM 42.5950 -95.2680 88° East 524 603 37,000  Level FlightAware
05:15PM 42.5970 -95.1510 89° East 523 602 37,000  Level FlightAware
05:16PM 42.5990 -95.0430 89° East 521 600 37,000  Level FlightAware
05:16PM 42.6010 -94.9230 89° East 521 600 37,000  Level FlightAware
05:17PM 42.6030 -94.8090 89° East 520 598 37,000  Level FlightAware
05:17PM 42.6050 -94.7020 89° East 521 600 37,000  Level FlightAware
05:17PM 42.6054 -94.6912 87° East 522 601 37,000  Level FlightAware ADS-B
05:18PM 42.6070 -94.5830 89° East 524 603 37,000  Level FlightAware
05:18PM 42.6077 -94.5377 89° East 523 602 37,000  Level FlightAware ADS-B
05:19PM 42.6100 -94.3580 89° East 516 594 37,000  Level FlightAware
05:20PM 42.6117 -94.2475 89° East 518 596 37,000  Level FlightAware ADS-B
05:20PM 42.6126 -94.1396 89° East 521 600 37,000  Level FlightAware ADS-B
05:21PM 42.6140 -94.0070 89° East 520 598 37,000  Level FlightAware
05:22PM 42.6140 -93.9100 90° East 515 593 37,000  Level FlightAware
05:22PM 42.6150 -93.7880 89° East 516 594 37,000  Level FlightAware
05:23PM 42.6160 -93.6760 89° East 517 595 37,000  Level FlightAware
05:23PM 42.6160 -93.5660 90° East 513 590 37,000  Level FlightAware
05:24PM 42.6160 -93.4610 90° East 512 589 37,000  Level FlightAware
05:24PM 42.6170 -93.3370 89° East 515 593 37,000  Level FlightAware
05:25PM 42.6170 -93.1860 90° East 517 595 37,000  Level FlightAware
05:26PM 42.6170 -93.0850 90° East 518 596 37,000  Level FlightAware
05:26PM 42.6160 -92.9560 91° East 519 597 37,000  Level FlightAware
05:27PM 42.6160 -92.8360 90° East 515 593 37,000  Level FlightAware
05:28PM 42.6160 -92.7410 90° East 518 596 37,000  Level FlightAware
05:28PM 42.6150 -92.6150 91° East 522 601 37,000  Level FlightAware
05:29PM 42.6150 -92.5428 90° East 522 601 37,000  Level FlightAware ADS-B
05:29PM 42.6143 -92.4284 90° East 522 601 37,000  Level FlightAware ADS-B
05:30PM 42.6130 -92.2650 91° East 520 598 37,000  Level FlightAware
05:30PM 42.6123 -92.1687 91° East 521 600 37,000  Level FlightAware ADS-B
05:31PM 42.6114 -92.0734 91° East 522 601 37,000  Level FlightAware ADS-B
05:32PM 42.6100 -91.9400 91° East 523 602 37,000  Level FlightAware
05:32PM 42.6097 -91.9034 91° East 523 602 37,000  Level FlightAware ADS-B
05:32PM 42.6086 -91.8073 91° East 522 601 37,000  Level FlightAware ADS-B
05:33PM 42.6070 -91.7020 91° East 521 600 37,000  Level FlightAware
05:34PM 42.6055 -91.5680 91° East 520 598 37,000  Level FlightAware ADS-B
05:34PM 42.6040 -91.4670 91° East 522 601 37,000  Level FlightAware
05:34PM 42.6035 -91.4287 91° East 522 601 37,000  Level FlightAware ADS-B
05:35PM 42.6014 -91.2933 91° East 513 590 37,000  Level FlightAware ADS-B
05:36PM 42.5998 -91.1943 91° East 512 589 37,000  Level FlightAware ADS-B
05:36PM 42.5971 -91.0445 91° East 512 589 37,000  Level FlightAware ADS-B
05:37PM 42.5950 -90.9345 91° East 511 588 37,000  Level FlightAware ADS-B
05:37PM 42.5924 -90.8069 92° East 509 586 37,000  Level FlightAware ADS-B
05:38PM 42.5902 -90.7066 92° East 505 581 37,000  Level FlightAware ADS-B
05:39PM 42.5870 -90.5730 92° East 503 579 37,000  Level FlightAware
05:39PM 42.5850 -90.4560 91° East 503 579 37,000  Level FlightAware
05:40PM 42.5820 -90.3550 92° East 502 578 37,000  Level FlightAware
05:40PM 42.5790 -90.2470 92° East 504 580 37,000  Level FlightAware
05:41PM 42.5760 -90.1280 92° East 506 582 37,000  Level FlightAware
05:42PM 42.5740 -90.0230 91° East 511 588 37,000  Level FlightAware
05:42PM 42.5700 -89.9120 93° East 520 598 37,000  Level FlightAware
05:43PM 42.5670 -89.7930 92° East 526 605 37,000  Level FlightAware
05:43PM 42.5630 -89.6710 93° East 525 604 37,000  Level FlightAware
05:44PM 42.5600 -89.5700 92° East 525 604 37,000  Level FlightAware
05:45PM 42.5560 -89.4500 93° East 527 606 37,000  Level FlightAware
05:45PM 42.5520 -89.3300 93° East 525 604 37,000  Level FlightAware
05:46PM 42.5490 -89.2220 92° East 527 606 37,000  Level FlightAware
05:46PM 42.5440 -89.1020 93° East 527 606 37,000  Level FlightAware
05:47PM 42.5400 -88.9860 93° East 526 605 37,000  Level FlightAware
05:47PM 42.5360 -88.8650 93° East 523 602 37,000  Level FlightAware
05:48PM 42.5320 -88.7680 93° East 520 598 37,000  Level FlightAware
05:49PM 42.5280 -88.6500 93° East 524 603 37,000  Level FlightAware
05:49PM 42.5230 -88.5260 93° East 528 608 37,000  Level FlightAware
05:50PM 42.5180 -88.4110 93° East 529 609 37,000  Level FlightAware
05:50PM 42.5130 -88.2920 93° East 526 605 37,000  Level FlightAware
05:51PM 42.5090 -88.1910 93° East 522 601 37,000  Level FlightAware
05:52PM 42.5030 -88.0680 94° East 523 602 37,000  Level FlightAware
05:52PM 42.5000 -87.9570 92° East 527 606 37,000  Level FlightAware
05:53PM 42.5000 -87.8420 90° East 531 611 37,000  Level FlightAware
05:53PM 42.5000 -87.7200 90° East 534 615 37,000  Level FlightAware
05:54PM 42.4990 -87.5980 91° East 533 613 37,000  Level FlightAware
05:54PM 42.4990 -87.4880 90° East 533 613 37,000  Level FlightAware
05:55PM 42.4990 -87.3680 90° East 531 611 37,000  Level FlightAware
05:56PM 42.4980 -87.2590 91° East 529 609 37,000  Level FlightAware
05:56PM 42.4970 -87.1460 91° East 528 608 37,000  Level FlightAware
05:57PM 42.4960 -87.0240 91° East 526 605 37,000  Level FlightAware
05:57PM 42.4950 -86.9170 91° East 524 603 37,000  Level FlightAware
05:58PM 42.4940 -86.8040 91° East 523 602 37,000  Level FlightAware
05:59PM 42.4930 -86.6880 91° East 522 601 37,000  Level FlightAware
05:59PM 42.4910 -86.5710 91° East 522 601 37,000  Level FlightAware
06:00PM 42.4900 -86.4560 91° East 522 601 37,000  Level FlightAware
06:00PM 42.4880 -86.3370 91° East 524 603 37,000  Level FlightAware
06:01PM 42.4870 -86.2340 91° East 524 603 37,000  Level FlightAware
06:01PM 42.4850 -86.1110 91° East 522 601 37,000  Level FlightAware
06:02PM 42.4830 -85.9980 91° East 522 601 37,000  Level FlightAware
06:03PM 42.4810 -85.8760 91° East 524 603 37,000  Level FlightAware
06:03PM 42.4790 -85.7720 91° East 526 605 37,000  Level FlightAware
06:04PM 42.4770 -85.6520 91° East 529 609 37,000  Level FlightAware
06:04PM 42.4740 -85.5290 92° East 528 608 37,000  Level FlightAware
06:05PM 42.4720 -85.4230 91° East 528 608 37,000  Level FlightAware
06:06PM 42.4690 -85.3030 92° East 527 606 37,000  Level FlightAware
06:06PM 42.4670 -85.2010 91° East 527 606 37,000  Level FlightAware
06:07PM 42.4640 -85.0740 92° East 528 608 37,000  Level FlightAware
06:07PM 42.4600 -84.9520 93° East 528 608 37,000  Level FlightAware
06:08PM 42.4580 -84.8490 91° East 527 606 37,000  Level FlightAware
06:09PM 42.4540 -84.7300 93° East 528 608 37,000  Level FlightAware
06:09PM 42.4510 -84.6070 92° East 528 608 37,000  Level FlightAware
06:10PM 42.4480 -84.5080 92° East 529 609 37,000  Level FlightAware
06:10PM 42.4440 -84.3870 93° East 530 610 37,000  Level FlightAware
06:11PM 42.4420 -84.3260 93° East 530 610 37,000  Level FlightAware
06:11PM 42.4360 -84.1470 93° East 532 612 37,000  Level FlightAware
06:12PM 42.4330 -84.0390 92° East 534 615 37,000  Level FlightAware
06:13PM 42.4280 -83.9180 93° East 534 615 37,000  Level FlightAware
06:13PM 42.4240 -83.7970 93° East 533 613 37,000  Level FlightAware
06:14PM 42.4200 -83.6850 93° East 533 613 37,000  Level FlightAware
06:14PM 42.4150 -83.5580 93° East 534 615 37,000  Level FlightAware
06:15PM 42.4110 -83.4560 93° East 533 613 37,000  Level FlightAware
06:15PM 42.4060 -83.3330 93° East 529 609 37,000  Level FlightAware
06:16PM 42.4010 -83.2140 93° East 529 609 37,000  Level FlightAware
06:17PM 42.3970 -83.1010 93° East 530 610 37,000  Level FlightAware
06:17PM 42.3910 -82.9800 94° East 532 612 37,000  Level FlightAware
06:18PM 42.3870 -82.8790 93° East 533 613 37,000  Level FlightAware
06:18PM 42.3820 -82.7590 93° East 534 615 37,000  Level FlightAware
06:19PM 42.3770 -82.6540 94° East 531 611 37,000  Level FlightAware
06:20PM 42.3720 -82.5230 93° East 529 609 37,000  Level FlightAware
06:20PM 42.3680 -82.4080 93° East 526 605 37,000  Level FlightAware
06:21PM 42.3630 -82.3040 94° East 526 605 37,000  Level FlightAware
06:21PM 42.3590 -82.1930 93° East 523 602 37,000  Level FlightAware
06:22PM 42.3530 -82.0680 94° East 521 600 37,000  Level FlightAware
06:23PM 42.3480 -81.9350 93° East 524 603 37,000  Level FlightAware
06:23PM 42.3430 -81.8280 94° East 525 604 37,000  Level FlightAware
06:24PM 42.3370 -81.6960 93° East 521 600 37,000  Level FlightAware
06:24PM 42.3310 -81.5770 94° East 521 600 37,000  Level FlightAware
06:25PM 42.3270 -81.4840 93° East 521 600 37,000  Level FlightAware
06:26PM 42.3210 -81.3590 94° East 525 604 37,000  Level FlightAware
06:26PM 42.3150 -81.2390 94° East 527 606 37,000  Level FlightAware
06:27PM 42.3100 -81.1390 94° East 525 604 37,000  Level FlightAware
06:27PM 42.3040 -81.0190 94° East 521 600 37,000  Level FlightAware
06:28PM 42.2980 -80.9090 94° East 521 600 37,000  Level FlightAware
06:28PM 42.2900 -80.7980 96° East 519 597 37,000  Level FlightAware
06:29PM 42.2800 -80.7090 99° East 518 596 37,000  Level FlightAware
06:29PM 42.2640 -80.5890 100° East 520 598 37,000  Level FlightAware
06:30PM 42.2480 -80.4710 100° East 522 601 37,000  Level FlightAware
06:31PM 42.2340 -80.3680 100° East 522 601 37,000  Level FlightAware
06:31PM 42.2180 -80.2550 101° East 522 601 37,000  Level FlightAware
06:32PM 42.2030 -80.1390 100° East 523 602 37,000  Level FlightAware
06:32PM 42.1880 -80.0340 101° East 523 602 37,000  Level FlightAware
06:33PM 42.1740 -79.9270 100° East 523 602 37,000  Level FlightAware
06:34PM 42.1570 -79.8050 101° East 526 605 37,000  Level FlightAware
06:34PM 42.1420 -79.7010 101° East 526 605 37,000  Level FlightAware
06:35PM 42.1250 -79.5800 101° East 525 604 37,000  Level FlightAware
06:35PM 42.1080 -79.4610 101° East 526 605 37,000  Level FlightAware
06:36PM 42.0920 -79.3510 101° East 525 604 37,000  Level FlightAware
06:37PM 42.0770 -79.2440 101° East 526 605 37,000  Level FlightAware
06:37PM 42.0600 -79.1330 102° East 529 609 37,000  Level FlightAware
06:38PM 42.0430 -79.0180 101° East 530 610 37,000  Level FlightAware
06:38PM 42.0260 -78.9030 101° East 529 609 37,000  Level FlightAware
06:39PM 42.0120 -78.8050 101° East 523 602 37,000  Level FlightAware
06:39PM 41.9950 -78.6910 101° East 525 604 37,000  Level FlightAware
06:40PM 41.9760 -78.5700 102° East 527 606 37,000  Level FlightAware
06:40PM 41.9620 -78.4740 101° East 527 606 37,000  Level FlightAware
06:41PM 41.9430 -78.3490 102° East 526 605 37,000 -360 Level FlightAware
06:42PM 41.9250 -78.2330 102° East 531 611 36,600 -960 Descending FlightAware
06:42PM 41.9060 -78.1160 102° East 531 611 35,900 -1,260 Descending FlightAware
06:43PM 41.8890 -78.0020 101° East 530 610 35,100 -840 Descending FlightAware
06:43PM 41.8730 -77.9060 103° East 527 606 35,000 -120 Descending FlightAware
06:44PM 41.8470 -77.7860 106° East 525 604 35,000  Level FlightAware
06:45PM 41.8170 -77.6690 109° East 528 608 35,000  Level FlightAware
06:45PM 41.7910 -77.5720 110° East 529 609 35,000  Level FlightAware
06:46PM 41.7600 -77.4540 109° East 528 608 35,000  Level FlightAware
06:46PM 41.7340 -77.3590 110° East 533 613 35,000  Level FlightAware
06:47PM 41.7000 -77.2300 109° East 537 618 35,000  Level FlightAware
06:48PM 41.6720 -77.1280 110° East 532 612 35,000  Level FlightAware
06:48PM 41.6410 -77.0120 110° East 526 605 35,000  Level FlightAware
06:49PM 41.6100 -76.9000 110° East 524 603 35,000  Level FlightAware
06:49PM 41.5850 -76.8070 110° East 526 605 35,000 -120 Level FlightAware
06:50PM 41.5470 -76.6680 110° East 527 606 34,900 -480 Descending FlightAware
06:51PM 41.5200 -76.5690 110° East 527 606 34,400 -1,080 Descending FlightAware
06:51PM 41.4810 -76.4290 110° East 529 609 33,500 -1,320 Descending FlightAware
06:52PM 41.4460 -76.3040 110° East 526 605 32,600 -1,560 Descending FlightAware
06:53PM 41.4150 -76.1930 110° East 530 610 31,500 -1,980 Descending FlightAware
06:53PM 41.3880 -76.0940 110° East 532 612 30,300 -2,400 Descending FlightAware
06:54PM 41.3550 -75.9780 111° Southeast 536 617 28,700 -2,100 Descending FlightAware
06:54PM 41.3290 -75.8850 110° East 526 605 27,900 -1,800 Descending FlightAware
06:55PM 41.2990 -75.7820 111° Southeast 517 595 26,800 -2,220 Descending FlightAware
06:56PM 41.2690 -75.6790 111° Southeast 506 582 25,400 -2,280 Descending FlightAware
06:56PM 41.2330 -75.5690 113° Southeast 489 563 24,000 -1,620 Descending FlightAware
06:57PM 41.2010 -75.4730 114° Southeast 480 552 23,400 -900 Descending FlightAware
06:57PM 41.1740 -75.3920 114° Southeast 477 549 23,000 -360 Descending FlightAware
06:58PM 41.1380 -75.2880 115° Southeast 479 551 23,000  Level FlightAware
06:59PM 41.1100 -75.2040 114° Southeast 483 556 23,000  Level FlightAware
06:59PM 41.0790 -75.1120 114° Southeast 484 557 23,000 -480 Level FlightAware
07:00PM 41.0450 -75.0140 115° Southeast 483 556 22,500 -960 Descending FlightAware
07:00PM 41.0090 -74.9040 113° Southeast 471 542 21,800 -960 Descending FlightAware
07:01PM 40.9900 -74.8100 105° East 482 555 21,300 -1,020 Descending FlightAware
07:02PM 40.9760 -74.6880 99° East 480 552 20,600 -1,020 Descending FlightAware
07:02PM 40.9660 -74.5930 98° East 474 545 20,100 -840 Descending FlightAware
07:03PM 40.9560 -74.5000 98° East 456 525 19,700 -540 Descending FlightAware
07:03PM 40.9450 -74.4030 99° East 425 489 19,500 -420 Descending FlightAware
07:04PM 40.9320 -74.2890 99° East 406 467 19,200 -360 Descending FlightAware
07:05PM 40.9240 -74.2180 98° East 382 440 19,100 -300 Descending FlightAware
07:05PM 40.9140 -74.1800 109° East 361 415 19,000 -420 Descending FlightAware
07:05PM 40.8988 -74.1548 129° Southeast 348 400 18,900 -540 Descending FlightAware ADS-B
07:05PM 40.8891 -74.1426 136° Southeast 343 395 18,800 -1,320 Descending FlightAware ADS-B
07:06PM 40.8516 -74.0991 139° Southeast 339 390 18,000 -1,560 Descending FlightAware ADS-B
07:06PM 40.8164 -74.0575 138° Southeast 337 388 17,200 -1,560 Descending FlightAware ADS-B
07:07PM 40.7786 -74.0131 138° Southeast 330 380 16,400 -1,200 Descending FlightAware ADS-B
07:07PM 40.7384 -73.9752 144° Southeast 306 352 15,900 -1,380 Descending FlightAware ADS-B (KSNC)
07:08PM 40.6950 -73.9540 160° South 304 350 14,900 -1,680 Descending FlightAware
07:08PM 40.6767 -73.9448 159° South 303 349 14,600 -1,140 Descending FlightAware ADS-B (KSNC)
07:09PM 40.6124 -73.9144 160° South 294 338 13,700 -1,140 Descending FlightAware ADS-B
07:09PM 40.6057 -73.9113 160° South 295 339 13,600 -1,020 Descending FlightAware ADS-B (KSNC)
07:10PM 40.5639 -73.8920 161° South 298 343 13,100 -480 Descending FlightAware ADS-B
07:10PM 40.5240 -73.8741 161° South 298 343 13,100 -360 Level FlightAware ADS-B
07:11PM 40.4508 -73.8413 161° South 294 338 12,600 -840 Descending FlightAware ADS-B
07:12PM 40.3850 -73.8130 162° South 271 312 11,600 -960 Descending FlightAware
07:12PM 40.3650 -73.8000 154° Southeast 266 306 11,500 -600 Descending FlightAware
07:12PM 40.3550 -73.7850 131° Southeast 267 307 11,300 -600 Descending FlightAware
07:13PM 40.3520 -73.7720 107° East 267 307 11,300 -780 Level FlightAware
07:13PM 40.3450 -73.7200 100° East 267 307 10,800 -960 Descending FlightAware
07:13PM 40.3520 -73.6910 72° East 276 318 10,500 -1,200 Descending FlightAware
07:14PM 40.3670 -73.6690 48° Northeast 277 319 10,100 -1,320 Descending FlightAware
07:14PM 40.3820 -73.6500 44° Northeast 277 319 9,800 -1,080 Descending FlightAware
07:14PM 40.3970 -73.6280 48° Northeast 275 316 9,500 -960 Descending FlightAware
07:15PM 40.4140 -73.6050 46° Northeast 272 313 9,200 -960 Descending FlightAware
07:15PM 40.4310 -73.5820 46° Northeast 269 310 8,900 -1,080 Descending FlightAware
07:15PM 40.4410 -73.5690 45° Northeast 269 310 8,700 -960 Descending FlightAware
07:15PM 40.4550 -73.5580 31° Northeast 267 307 8,500 -1,020 Descending FlightAware
07:16PM 40.4790 -73.5420 27° Northeast 264 304 8,100 -1,020 Descending FlightAware
07:16PM 40.4970 -73.5290 29° Northeast 262 302 7,900 -960 Descending FlightAware
07:16PM 40.5210 -73.5130 27° Northeast 260 299 7,500 -1,080 Descending FlightAware
07:17PM 40.5470 -73.4950 28° Northeast 257 296 7,100 -960 Descending FlightAware
07:17PM 40.5680 -73.4820 25° Northeast 253 291 6,800 -900 Descending FlightAware
07:17PM 40.5770 -73.4790 14° North 250 288 6,700 -840 Descending FlightAware
07:18PM 40.6020 -73.4730 10° North 246 283 6,400 -900 Descending FlightAware
07:18PM 40.6240 -73.4690 North 245 282 6,100 -1,080 Descending FlightAware
07:18PM 40.6470 -73.4640 North 244 281 5,700 -1,080 Descending FlightAware
07:19PM 40.6690 -73.4600 North 243 280 5,400 -1,080 Descending FlightAware
07:19PM 40.6790 -73.4600 360° North 242 278 5,200 -1,380 Descending FlightAware
07:19PM 40.7134 -73.4648 354° North 246 283 4,500 -1,320 Descending FlightAware ADS-B (KSNC)
07:20PM 40.7520 -73.4820 341° North 217 250 3,700 -900 Descending FlightAware
07:20PM 40.7650 -73.4870 344° North 198 228 3,700 -240 Level FlightAware
07:20PM 40.7760 -73.4910 345° North 190 219 3,600 -720 Descending FlightAware
07:21PM 40.7860 -73.4930 351° North 184 212 3,400 -720 Descending FlightAware
07:21PM 40.8040 -73.4970 350° North 178 205 3,200 -840 Descending FlightAware
07:21PM 40.8240 -73.5010 351° North 176 203 2,800 -1,020 Descending FlightAware
07:22PM 40.8330 -73.5040 346° North 172 198 2,600 -900 Descending FlightAware
07:22PM 40.8370 -73.5090 317° Northwest 164 189 2,500 -900 Descending FlightAware
07:22PM 40.8420 -73.5190 303° West 160 184 2,300 -360 Descending FlightAware
07:22PM 40.8510 -73.5380 302° West 160 184 2,300 -300 Level FlightAware
07:23PM 40.8490 -73.5620 264° West 154 177 2,100 -300 Descending FlightAware
07:23PM 40.8410 -73.5790 238° Southwest 155 178 2,100  Level FlightAware
07:24PM 40.8270 -73.6090 238° Southwest 154 177 2,100  Level FlightAware
07:24PM 40.8180 -73.6180 217° Southwest 154 177 2,100  Level FlightAware
07:24PM 40.8060 -73.6330 223° Southwest 154 177 2,100  Level FlightAware
07:25PM 40.7920 -73.6410 203° Southwest 153 176 2,100  Level FlightAware
07:25PM 40.7790 -73.6500 208° Southwest 152 175 2,100  Level FlightAware
07:25PM 40.7680 -73.6580 209° Southwest 153 176 2,100  Level FlightAware
07:26PM 40.7560 -73.6680 212° Southwest 154 177 2,100  Level FlightAware
07:26PM 40.7450 -73.6770 212° Southwest 153 176 2,100  Level FlightAware
07:26PM 40.7300 -73.6880 209° Southwest 142 163 2,100 -420 Level FlightAware
07:27PM 40.7190 -73.6970 212° Southwest 134 154 1,800 -780 Descending FlightAware
07:27PM 40.7110 -73.7040 214° Southwest 125 144 1,600 -600 Descending FlightAware
07:27PM 40.6970 -73.7140 208° Southwest 121 139 1,400 -600 Descending FlightAware
07:28PM 40.6890 -73.7210 214° Southwest 125 144 1,200 -720 Descending FlightAware
07:28PM 40.6810 -73.7270 210° Southwest 124 143 1,000 -840 Descending FlightAware
07:28PM 40.6700 -73.7350 209° Southwest 126 145 700 -780 Descending FlightAware
07:29PM 40.6610 -73.7430 214° Southwest 124 143 500 -600 Descending FlightAware
07:29PM 40.6490 -73.7520 210° Southwest 127 146 300 -600 Descending FlightAware
07:29PM 40.6390 -73.7600 211° Southwest 122 140 100 -660 Descending FlightAware
07:40PM 40.6420 -73.7810 360° North -60 Descending FlightAware